createdAt,value
2019-02-23T00:00:12.732Z,5.20
2019-02-23T00:02:41.751Z,5.20
2019-02-23T00:05:10.606Z,5.10
2019-02-23T00:07:39.435Z,5.20
2019-02-23T00:10:08.785Z,5.10
2019-02-23T00:12:37.604Z,5.10
2019-02-23T00:15:07.044Z,5.00
2019-02-23T00:17:35.845Z,5.00
2019-02-23T00:20:07.031Z,5.00
2019-02-23T00:22:35.798Z,4.90
2019-02-23T00:25:04.947Z,4.90
2019-02-23T00:27:33.873Z,4.90
2019-02-23T00:30:02.937Z,4.80
2019-02-23T00:32:33.026Z,4.80
2019-02-23T00:35:01.786Z,4.80
2019-02-23T00:37:30.520Z,4.80
2019-02-23T00:39:59.210Z,4.80
2019-02-23T00:42:29.613Z,4.80
2019-02-23T00:44:58.353Z,4.80
2019-02-23T00:47:27.259Z,4.80
2019-02-23T00:49:56.031Z,4.80
2019-02-23T00:52:26.407Z,4.80
2019-02-23T00:54:55.158Z,4.80
2019-02-23T00:57:24.098Z,4.80
2019-02-23T00:59:52.861Z,4.80
2019-02-23T01:02:21.582Z,4.80
2019-02-23T01:04:50.354Z,4.80
2019-02-23T01:07:19.160Z,4.80
2019-02-23T01:09:50.030Z,4.70
2019-02-23T01:12:18.845Z,4.70
2019-02-23T01:14:48.904Z,4.70
2019-02-23T01:17:17.947Z,4.70
2019-02-23T01:19:48.051Z,4.80
2019-02-23T01:22:17.203Z,4.80
2019-02-23T01:24:46.411Z,4.70
2019-02-23T01:27:15.162Z,4.80
2019-02-23T01:29:43.866Z,4.80
2019-02-23T01:32:12.622Z,4.80
2019-02-23T01:34:41.272Z,4.70
2019-02-23T01:37:10.142Z,4.70
2019-02-23T01:39:39.004Z,4.80
2019-02-23T01:42:08.542Z,4.70
2019-02-23T01:44:38.521Z,4.70
2019-02-23T01:47:07.340Z,4.70
2019-02-23T01:49:36.137Z,4.60
2019-02-23T01:52:05.230Z,4.70
2019-02-23T01:54:34.081Z,4.70
2019-02-23T01:57:02.901Z,4.60
2019-02-23T01:59:31.658Z,4.60
2019-02-23T02:02:00.447Z,4.50
2019-02-23T02:04:29.206Z,4.50
2019-02-23T02:06:57.961Z,4.50
2019-02-23T02:09:26.824Z,4.50
2019-02-23T02:11:55.806Z,4.50
2019-02-23T02:14:24.876Z,4.40
2019-02-23T02:16:53.663Z,4.30
2019-02-23T02:19:22.413Z,4.30
2019-02-23T02:21:51.132Z,4.30
2019-02-23T02:24:19.873Z,4.30
2019-02-23T02:26:48.646Z,4.20
2019-02-23T02:29:17.450Z,4.20
2019-02-23T02:31:46.348Z,4.10
2019-02-23T02:34:15.937Z,4.20
2019-02-23T02:36:44.974Z,4.10
2019-02-23T02:39:14.267Z,4.10
2019-02-23T02:41:42.968Z,4.10
2019-02-23T02:44:11.692Z,4.10
2019-02-23T02:46:40.493Z,4.00
2019-02-23T02:49:09.520Z,4.00
2019-02-23T02:51:38.259Z,3.90
2019-02-23T02:54:06.974Z,3.90
2019-02-23T02:56:35.786Z,3.90
2019-02-23T02:59:04.486Z,3.90
2019-02-23T03:01:33.232Z,3.80
2019-02-23T03:04:01.916Z,3.80
2019-02-23T03:06:30.758Z,3.80
2019-02-23T03:08:59.441Z,3.80
2019-02-23T03:11:28.125Z,3.80
2019-02-23T03:13:56.864Z,3.70
2019-02-23T03:16:25.659Z,3.70
2019-02-23T03:18:54.439Z,3.70
2019-02-23T03:21:23.266Z,3.70
2019-02-23T03:23:52.060Z,3.70
2019-02-23T03:26:20.783Z,3.70
2019-02-23T03:28:49.527Z,3.70
2019-02-23T03:31:18.417Z,3.70
2019-02-23T03:33:47.184Z,3.60
2019-02-23T03:36:15.957Z,3.60
2019-02-23T03:38:44.778Z,3.50
2019-02-23T03:41:13.565Z,3.50
2019-02-23T03:43:42.313Z,3.50
2019-02-23T03:46:11.047Z,3.50
2019-02-23T03:48:39.818Z,3.40
2019-02-23T03:51:08.643Z,3.40
2019-02-23T03:53:37.387Z,3.50
2019-02-23T03:56:06.240Z,3.50
2019-02-23T03:58:35.032Z,3.40
2019-02-23T04:01:03.738Z,3.40
2019-02-23T04:03:32.450Z,3.40
2019-02-23T04:06:01.207Z,3.40
2019-02-23T04:08:29.978Z,3.50
2019-02-23T04:10:58.750Z,3.60
2019-02-23T04:13:27.598Z,3.50
2019-02-23T04:15:56.319Z,3.50
2019-02-23T04:18:25.065Z,3.40
2019-02-23T04:21:01.757Z,3.40
2019-02-23T04:23:24.102Z,3.40
2019-02-23T04:25:52.832Z,3.40
2019-02-23T04:28:23.076Z,3.40
2019-02-23T04:30:51.849Z,3.30
2019-02-23T04:33:20.686Z,3.30
2019-02-23T04:35:49.436Z,3.30
2019-02-23T04:38:18.201Z,3.20
2019-02-23T04:40:46.945Z,3.20
2019-02-23T04:43:15.523Z,3.30
2019-02-23T04:45:44.205Z,3.20
2019-02-23T04:48:12.982Z,3.20
2019-02-23T04:50:41.561Z,3.10
2019-02-23T04:53:10.276Z,3.00
2019-02-23T04:55:39.003Z,2.90
2019-02-23T04:58:07.712Z,2.90
2019-02-23T05:00:36.486Z,2.90
2019-02-23T05:03:05.288Z,2.90
2019-02-23T05:05:33.922Z,2.80
2019-02-23T05:08:02.737Z,2.80
2019-02-23T05:10:31.480Z,2.80
2019-02-23T05:13:00.313Z,2.70
2019-02-23T05:15:29.093Z,2.60
2019-02-23T05:17:57.915Z,2.60
2019-02-23T05:20:26.655Z,2.50
2019-02-23T05:22:55.319Z,2.50
2019-02-23T05:25:24.104Z,2.50
2019-02-23T05:27:52.900Z,2.50
2019-02-23T05:30:21.746Z,2.50
2019-02-23T05:32:50.586Z,2.50
2019-02-23T05:35:19.538Z,2.40
2019-02-23T05:37:48.246Z,2.40
2019-02-23T05:40:17.035Z,2.40
2019-02-23T05:42:45.778Z,2.30
2019-02-23T05:45:14.591Z,2.30
2019-02-23T05:47:43.305Z,2.20
2019-02-23T05:50:12.246Z,2.20
2019-02-23T05:52:41.032Z,2.20
2019-02-23T05:55:09.824Z,2.10
2019-02-23T05:57:38.587Z,2.00
2019-02-23T06:00:10.217Z,2.10
2019-02-23T06:02:38.943Z,2.10
2019-02-23T06:05:08.101Z,2.00
2019-02-23T06:07:36.932Z,2.00
2019-02-23T06:10:08.631Z,2.10
2019-02-23T06:12:37.347Z,2.00
2019-02-23T06:15:09.267Z,1.90
2019-02-23T06:17:38.018Z,1.90
2019-02-23T06:20:08.451Z,1.90
2019-02-23T06:22:37.177Z,1.90
2019-02-23T06:25:07.838Z,1.80
2019-02-23T06:27:36.715Z,1.80
2019-02-23T06:30:09.109Z,1.70
2019-02-23T06:32:37.961Z,1.60
2019-02-23T06:35:08.988Z,1.60
2019-02-23T06:37:37.768Z,1.50
2019-02-23T06:40:09.194Z,1.50
2019-02-23T06:42:37.982Z,1.40
2019-02-23T06:45:09.749Z,1.50
2019-02-23T06:47:38.502Z,1.50
2019-02-23T06:50:08.397Z,1.60
2019-02-23T06:52:37.123Z,1.60
2019-02-23T06:55:07.191Z,1.70
2019-02-23T06:57:36.070Z,1.70
2019-02-23T07:00:07.598Z,1.80
2019-02-23T07:02:36.364Z,1.80
2019-02-23T07:05:05.475Z,1.80
2019-02-23T07:07:34.240Z,1.90
2019-02-23T07:10:03.262Z,2.00
2019-02-23T07:12:32.088Z,2.10
2019-02-23T07:15:00.764Z,2.20
2019-02-23T07:17:29.447Z,2.30
2019-02-23T07:19:58.222Z,2.40
2019-02-23T07:22:26.934Z,2.40
2019-02-23T07:24:55.759Z,2.40
2019-02-23T07:27:24.711Z,2.50
2019-02-23T07:29:55.521Z,2.60
2019-02-23T07:32:26.811Z,2.60
2019-02-23T07:34:58.567Z,2.80
2019-02-23T07:37:27.466Z,3.10
2019-02-23T07:39:56.346Z,3.30
2019-02-23T07:42:25.182Z,3.60
2019-02-23T07:45:01.763Z,3.70
2019-02-23T07:50:18.980Z,3.60
2019-02-23T07:52:47.797Z,3.80
2019-02-23T07:55:16.790Z,4.00
2019-02-23T07:57:45.731Z,4.10
2019-02-23T08:00:15.238Z,4.40
2019-02-23T08:02:43.955Z,4.30
2019-02-23T08:05:12.793Z,4.40
2019-02-23T08:07:42.961Z,4.50
2019-02-23T08:10:13.023Z,4.50
2019-02-23T08:12:42.478Z,4.80
2019-02-23T08:15:12.300Z,4.80
2019-02-23T08:17:41.789Z,4.90
2019-02-23T08:20:14.686Z,5.10
2019-02-23T08:22:43.520Z,5.40
2019-02-23T08:25:13.756Z,5.80
2019-02-23T08:27:42.629Z,6.30
2019-02-23T08:30:14.751Z,6.70
2019-02-23T08:32:43.985Z,7.10
2019-02-23T08:35:12.946Z,7.40
2019-02-23T08:37:41.741Z,7.30
2019-02-23T08:40:15.132Z,7.10
2019-02-23T08:42:45.123Z,7.50
2019-02-23T08:45:13.965Z,7.40
2019-02-23T08:47:42.806Z,7.10
2019-02-23T08:50:14.691Z,6.90
2019-02-23T08:52:49.288Z,6.90
2019-02-23T08:55:14.064Z,7.20
2019-02-23T08:57:43.262Z,7.80
2019-02-23T09:00:15.316Z,8.10
2019-02-23T09:02:44.136Z,8.00
2019-02-23T09:05:13.618Z,7.70
2019-02-23T09:07:42.442Z,7.90
2019-02-23T09:10:13.248Z,8.50
2019-02-23T09:12:42.290Z,8.80
2019-02-23T09:15:12.164Z,8.30
2019-02-23T09:17:40.957Z,8.30
2019-02-23T09:20:11.502Z,8.90
2019-02-23T09:22:40.457Z,9.30
2019-02-23T09:25:11.051Z,9.60
2019-02-23T09:27:39.947Z,9.80
2019-02-23T09:30:10.988Z,9.70
2019-02-23T09:32:39.805Z,9.50
2019-02-23T09:35:08.750Z,9.70
2019-02-23T09:37:37.603Z,9.10
2019-02-23T09:40:09.309Z,9.00
2019-02-23T09:42:38.346Z,8.80
2019-02-23T09:45:10.181Z,8.80
2019-02-23T09:47:39.073Z,9.00
2019-02-23T09:50:08.218Z,9.00
2019-02-23T09:52:36.976Z,9.00
2019-02-23T09:55:06.349Z,9.10
2019-02-23T09:57:35.171Z,9.50
2019-02-23T10:00:06.116Z,9.50
2019-02-23T10:02:34.887Z,9.60
2019-02-23T10:05:03.915Z,9.50
2019-02-23T10:07:32.670Z,9.50
2019-02-23T10:10:01.546Z,10.00
2019-02-23T10:12:30.433Z,10.00
2019-02-23T10:14:59.280Z,10.10
2019-02-23T10:17:28.270Z,10.30
2019-02-23T10:19:57.062Z,9.90
2019-02-23T10:22:25.840Z,9.50
2019-02-23T10:24:55.724Z,9.00
2019-02-23T10:27:24.543Z,8.80
2019-02-23T10:29:53.297Z,8.70
2019-02-23T10:32:22.149Z,8.70
2019-02-23T10:34:51.096Z,8.70
2019-02-23T10:37:21.231Z,8.30
2019-02-23T10:39:51.379Z,8.50
2019-02-23T10:42:20.205Z,8.70
2019-02-23T10:44:49.001Z,8.70
2019-02-23T10:47:19.744Z,8.40
2019-02-23T10:49:48.255Z,8.40
2019-02-23T10:52:17.303Z,8.20
2019-02-23T10:54:47.241Z,8.30
2019-02-23T10:57:16.151Z,8.40
2019-02-23T10:59:44.956Z,8.70
2019-02-23T11:02:14.405Z,8.90
2019-02-23T11:04:48.566Z,8.90
2019-02-23T11:07:17.393Z,9.00
2019-02-23T11:09:46.538Z,8.90
2019-02-23T11:12:15.712Z,9.00
2019-02-23T11:14:44.437Z,8.90
2019-02-23T11:17:13.318Z,9.00
2019-02-23T11:19:42.170Z,9.10
2019-02-23T11:22:12.120Z,9.10
2019-02-23T11:24:41.512Z,9.00
2019-02-23T11:27:10.746Z,8.90
2019-02-23T11:29:39.581Z,8.80
2019-02-23T11:32:08.379Z,9.00
2019-02-23T11:34:37.120Z,9.20
2019-02-23T11:37:07.423Z,9.20
2019-02-23T11:39:36.246Z,9.40
2019-02-23T11:42:05.347Z,9.40
2019-02-23T11:44:34.132Z,9.50
2019-02-23T11:47:04.627Z,9.20
2019-02-23T11:49:33.440Z,9.10
2019-02-23T11:52:02.266Z,9.20
2019-02-23T11:54:31.055Z,9.40
2019-02-23T11:56:59.789Z,9.50
2019-02-23T11:59:28.553Z,9.30
2019-02-23T12:02:01.084Z,9.10
2019-02-23T12:04:29.796Z,9.20
2019-02-23T12:07:00.168Z,9.10
2019-02-23T12:09:28.949Z,9.20
2019-02-23T12:11:59.189Z,9.40
2019-02-23T12:14:27.929Z,9.50
2019-02-23T12:16:56.896Z,9.30
2019-02-23T12:19:25.765Z,9.20
2019-02-23T12:21:54.565Z,9.20
2019-02-23T12:24:23.364Z,9.20
2019-02-23T12:26:52.204Z,9.40
2019-02-23T12:29:20.975Z,9.40
2019-02-23T12:31:49.902Z,9.60
2019-02-23T12:34:18.711Z,9.60
2019-02-23T12:36:47.495Z,9.60
2019-02-23T12:39:18.170Z,9.70
2019-02-23T12:41:49.985Z,9.70
2019-02-23T12:44:21.496Z,9.80
2019-02-23T12:46:53.024Z,9.70
2019-02-23T12:49:21.794Z,9.70
2019-02-23T12:51:53.150Z,10.00
2019-02-23T12:54:26.209Z,10.00
2019-02-23T13:00:24.245Z,10.00
2019-02-23T13:02:53.000Z,10.20
2019-02-23T13:05:21.779Z,10.30
2019-02-23T13:07:53.185Z,10.40
2019-02-23T13:10:24.651Z,10.60
2019-02-23T13:12:57.584Z,10.40
2019-02-23T13:15:29.328Z,10.30
2019-02-23T13:18:00.290Z,10.50
2019-02-23T13:20:31.279Z,10.50
2019-02-23T13:23:02.866Z,10.70
2019-02-23T13:25:34.438Z,10.70
2019-02-23T13:28:06.100Z,10.70
2019-02-23T13:30:37.840Z,10.50
2019-02-23T13:33:09.082Z,10.60
2019-02-23T13:35:41.050Z,10.60
2019-02-23T13:38:12.046Z,10.60
2019-02-23T13:40:43.639Z,10.60
2019-02-23T13:43:14.172Z,10.50
2019-02-23T13:45:45.749Z,10.40
2019-02-23T13:48:15.691Z,10.40
2019-02-23T13:50:47.330Z,10.40
2019-02-23T13:53:18.958Z,10.40
2019-02-23T13:55:48.969Z,10.60
2019-02-23T13:58:21.996Z,10.60
2019-02-23T14:00:53.688Z,10.60
2019-02-23T14:03:24.885Z,10.90
2019-02-23T14:05:56.470Z,11.30
2019-02-23T14:08:28.123Z,11.70
2019-02-23T14:10:59.766Z,12.60
2019-02-23T14:13:31.293Z,12.80
2019-02-23T14:16:01.205Z,12.20
2019-02-23T14:18:32.892Z,12.30
2019-02-23T14:21:03.988Z,12.70
2019-02-23T14:23:32.300Z,12.70
2019-02-23T14:26:02.723Z,12.60
2019-02-23T14:28:34.738Z,12.70
2019-02-23T14:31:05.487Z,12.80
2019-02-23T14:33:39.642Z,12.80
2019-02-23T14:36:09.654Z,12.90
2019-02-23T14:38:41.192Z,13.00
2019-02-23T14:41:13.107Z,12.40
2019-02-23T14:43:44.023Z,12.20
2019-02-23T14:46:15.886Z,11.90
2019-02-23T14:48:47.513Z,11.80
2019-02-23T14:51:19.110Z,11.80
2019-02-23T14:53:50.404Z,11.70
2019-02-23T14:56:20.555Z,11.70
2019-02-23T14:58:52.383Z,11.70
2019-02-23T15:01:22.461Z,11.70
2019-02-23T15:03:53.356Z,11.30
2019-02-23T15:06:24.445Z,11.00
2019-02-23T15:08:56.540Z,10.80
2019-02-23T15:11:28.183Z,10.70
2019-02-23T15:13:58.204Z,10.60
2019-02-23T15:16:29.821Z,10.50
2019-02-23T15:19:01.399Z,10.40
2019-02-23T15:21:32.933Z,10.40
2019-02-23T15:24:04.517Z,10.30
2019-02-23T15:26:37.643Z,10.40
2019-02-23T15:29:07.947Z,10.40
2019-02-23T15:31:39.650Z,10.30
2019-02-23T15:34:11.470Z,10.30
2019-02-23T15:36:43.104Z,10.30
2019-02-23T15:39:14.130Z,10.20
2019-02-23T15:41:45.830Z,10.20
2019-02-23T15:44:17.530Z,10.20
2019-02-23T15:46:49.089Z,10.20
2019-02-23T15:49:19.178Z,10.20
2019-02-23T15:51:47.984Z,10.20
2019-02-23T15:54:16.915Z,10.20
2019-02-23T15:56:45.733Z,10.10
2019-02-23T15:59:14.516Z,10.20
2019-02-23T16:01:44.516Z,10.10
2019-02-23T16:04:13.308Z,10.10
2019-02-23T16:06:42.168Z,10.00
2019-02-23T16:09:11.106Z,9.90
2019-02-23T16:11:39.949Z,9.90
2019-02-23T16:14:08.782Z,9.80
2019-02-23T16:16:37.599Z,9.80
2019-02-23T16:19:06.567Z,9.80
2019-02-23T16:21:36.717Z,9.70
2019-02-23T16:24:06.825Z,9.70
2019-02-23T16:26:38.436Z,9.70
2019-02-23T16:29:07.216Z,9.70
2019-02-23T16:31:35.994Z,9.70
2019-02-23T16:34:07.383Z,9.60
2019-02-23T16:36:35.482Z,9.60
2019-02-23T16:39:08.476Z,9.50
2019-02-23T16:41:37.261Z,9.50
2019-02-23T16:44:06.061Z,9.40
2019-02-23T16:46:34.811Z,9.40
2019-02-23T16:49:03.828Z,9.30
2019-02-23T16:51:32.735Z,9.20
2019-02-23T16:54:01.607Z,9.20
2019-02-23T16:56:30.478Z,9.30
2019-02-23T16:58:59.303Z,9.30
2019-02-23T17:01:28.866Z,9.20
2019-02-23T17:03:57.633Z,9.10
2019-02-23T17:06:26.444Z,9.00
2019-02-23T17:08:55.220Z,9.00
2019-02-23T17:11:23.989Z,8.90
2019-02-23T17:13:52.796Z,8.80
2019-02-23T17:16:23.919Z,8.70
2019-02-23T17:18:52.787Z,8.60
2019-02-23T17:21:21.533Z,8.50
2019-02-23T17:23:50.316Z,8.40
2019-02-23T17:26:19.464Z,8.30
2019-02-23T17:28:48.343Z,8.20
2019-02-23T17:31:17.176Z,8.10
2019-02-23T17:33:45.986Z,8.00
2019-02-23T17:36:14.730Z,7.90
2019-02-23T17:38:44.838Z,7.90
2019-02-23T17:41:13.771Z,7.80
2019-02-23T17:43:42.510Z,7.70
2019-02-23T17:46:11.301Z,7.70
2019-02-23T17:48:40.316Z,7.70
2019-02-23T17:51:09.014Z,7.80
2019-02-23T17:53:37.750Z,7.80
2019-02-23T17:56:12.188Z,7.70
2019-02-23T17:58:37.028Z,7.60
2019-02-23T18:01:05.670Z,7.60
2019-02-23T18:03:34.517Z,7.50
2019-02-23T18:06:03.406Z,7.50
2019-02-23T18:08:32.122Z,7.50
2019-02-23T18:11:01.006Z,7.40
2019-02-23T18:13:29.838Z,7.30
2019-02-23T18:15:59.302Z,7.20
2019-02-23T18:18:29.322Z,7.20
2019-02-23T18:20:58.115Z,7.10
2019-02-23T18:23:26.954Z,7.10
2019-02-23T18:25:55.734Z,7.00
2019-02-23T18:28:24.646Z,7.00
2019-02-23T18:30:53.444Z,6.90
2019-02-23T18:33:22.307Z,6.90
2019-02-23T18:35:51.140Z,6.80
2019-02-23T18:38:19.997Z,6.80
2019-02-23T18:40:48.851Z,6.70
2019-02-23T18:43:17.591Z,6.60
2019-02-23T18:45:47.668Z,6.50
2019-02-23T18:48:16.678Z,6.50
2019-02-23T18:50:45.537Z,6.50
2019-02-23T18:53:14.378Z,6.50
2019-02-23T18:55:43.209Z,6.50
2019-02-23T18:58:12.018Z,6.40
2019-02-23T19:00:40.790Z,6.30
2019-02-23T19:03:09.620Z,6.20
2019-02-23T19:05:38.476Z,6.10
2019-02-23T19:08:07.283Z,6.10
2019-02-23T19:10:36.219Z,6.10
2019-02-23T19:13:05.010Z,6.20
2019-02-23T19:15:33.742Z,6.10
2019-02-23T19:18:02.636Z,6.10
2019-02-23T19:20:31.558Z,6.10
2019-02-23T19:23:00.463Z,6.10
2019-02-23T19:25:29.359Z,6.10
2019-02-23T19:27:58.095Z,6.00
2019-02-23T19:30:27.087Z,5.90
2019-02-23T19:32:55.958Z,5.80
2019-02-23T19:35:24.819Z,5.70
2019-02-23T19:37:53.564Z,5.70
2019-02-23T19:40:22.373Z,5.70
2019-02-23T19:42:50.961Z,5.70
2019-02-23T19:45:19.765Z,5.70
2019-02-23T19:47:49.144Z,5.70
2019-02-23T19:50:21.181Z,5.70
2019-02-23T19:52:50.108Z,5.60
2019-02-23T19:55:18.984Z,5.60
2019-02-23T19:57:47.802Z,5.50
2019-02-23T20:00:16.587Z,5.40
2019-02-23T20:02:45.366Z,5.40
2019-02-23T20:05:14.241Z,5.30
2019-02-23T20:07:43.046Z,5.20
2019-02-23T20:10:11.987Z,5.20
2019-02-23T20:12:40.690Z,5.10
2019-02-23T20:15:11.131Z,5.00
2019-02-23T20:17:39.954Z,4.90
2019-02-23T20:20:09.581Z,4.90
2019-02-23T20:22:38.358Z,4.90
2019-02-23T20:25:09.031Z,4.80
2019-02-23T20:27:37.768Z,4.80
2019-02-23T20:30:25.868Z,4.70
2019-02-23T20:32:54.588Z,4.50
2019-02-23T20:35:23.384Z,4.50
2019-02-23T20:37:52.348Z,4.60
2019-02-23T20:40:21.149Z,4.60
2019-02-23T20:42:49.970Z,4.60
2019-02-23T20:45:18.854Z,4.60
2019-02-23T20:47:47.771Z,4.50
2019-02-23T20:50:16.611Z,4.50
2019-02-23T20:52:45.464Z,4.50
2019-02-23T20:55:14.306Z,4.40
2019-02-23T20:57:43.066Z,4.40
2019-02-23T21:00:12.631Z,4.40
2019-02-23T21:02:41.998Z,4.40
2019-02-23T21:05:12.996Z,4.30
2019-02-23T21:07:42.835Z,4.30
2019-02-23T21:10:11.747Z,4.40
2019-02-23T21:12:40.640Z,4.40
2019-02-23T21:15:10.976Z,4.40
2019-02-23T21:17:39.816Z,4.40
2019-02-23T21:20:10.455Z,4.40
2019-02-23T21:22:39.997Z,4.30
2019-02-23T21:25:09.964Z,4.20
2019-02-23T21:27:38.746Z,4.10
2019-02-23T21:30:09.823Z,4.00
2019-02-23T21:32:38.677Z,4.00
2019-02-23T21:35:08.624Z,4.00
2019-02-23T21:37:37.453Z,4.00
2019-02-23T21:40:08.937Z,3.90
2019-02-23T21:42:37.821Z,3.90
2019-02-23T21:45:08.807Z,4.00
2019-02-23T21:47:37.661Z,4.00
2019-02-23T21:50:09.210Z,4.00
2019-02-23T21:52:37.995Z,3.90
2019-02-23T21:55:07.083Z,4.00
2019-02-23T21:57:35.847Z,4.10
2019-02-23T22:00:07.329Z,4.10
2019-02-23T22:02:36.085Z,4.00
2019-02-23T22:05:11.925Z,4.00
2019-02-23T22:07:36.500Z,4.10
2019-02-23T22:10:08.286Z,4.00
2019-02-23T22:12:37.269Z,4.00
2019-02-23T22:15:07.439Z,3.90
2019-02-23T22:17:36.345Z,4.00
2019-02-23T22:20:08.907Z,4.00
2019-02-23T22:22:37.913Z,4.10
2019-02-23T22:25:07.031Z,4.10
2019-02-23T22:27:35.888Z,4.10
2019-02-23T22:30:05.807Z,4.10
2019-02-23T22:32:37.544Z,4.20
2019-02-23T22:35:06.845Z,4.20
2019-02-23T22:37:35.748Z,4.10
2019-02-23T22:40:06.601Z,4.10
2019-02-23T22:42:35.468Z,4.10
2019-02-23T22:45:08.010Z,4.00
2019-02-23T22:47:36.845Z,4.00
2019-02-23T22:50:07.995Z,4.00
2019-02-23T22:52:36.794Z,3.90
2019-02-23T22:55:06.303Z,4.00
2019-02-23T22:57:40.638Z,4.10
2019-02-23T23:00:08.824Z,4.10
2019-02-23T23:02:37.696Z,4.10
2019-02-23T23:05:07.199Z,4.10
2019-02-23T23:07:36.338Z,4.00
2019-02-23T23:10:07.096Z,4.00
2019-02-23T23:12:36.126Z,4.00
2019-02-23T23:15:08.651Z,3.90
2019-02-23T23:17:37.367Z,3.90
2019-02-23T23:20:08.120Z,3.90
2019-02-23T23:22:36.877Z,4.00
2019-02-23T23:25:07.350Z,4.00
2019-02-23T23:27:36.038Z,4.00
2019-02-23T23:30:07.142Z,4.00
2019-02-23T23:32:35.942Z,4.10
2019-02-23T23:35:05.637Z,4.10
2019-02-23T23:37:34.586Z,4.00
2019-02-23T23:40:03.709Z,4.00
2019-02-23T23:42:33.221Z,3.90
2019-02-23T23:45:03.979Z,3.80
2019-02-23T23:47:32.811Z,3.80
2019-02-23T23:50:01.505Z,3.70
2019-02-23T23:52:32.734Z,3.60
2019-02-23T23:55:01.517Z,3.60
2019-02-23T23:57:30.236Z,3.70
